createdAt,value
2023-04-28T00:00:04.633Z,10.81
2023-04-28T00:01:04.333Z,10.75
2023-04-28T00:03:04.017Z,10.69
2023-04-28T00:04:04.227Z,10.75
2023-04-28T00:05:04.605Z,10.81
2023-04-28T00:06:04.254Z,10.69
2023-04-28T00:07:03.844Z,10.62
2023-04-28T00:08:03.634Z,10.56
2023-04-28T00:09:04.098Z,10.50
2023-04-28T00:10:04.249Z,10.56
2023-04-28T00:11:04.326Z,10.62
2023-04-28T00:12:04.410Z,10.62
2023-04-28T00:13:04.412Z,10.50
2023-04-28T00:14:04.101Z,10.44
2023-04-28T00:16:03.639Z,10.69
2023-04-28T00:17:04.489Z,10.50
2023-04-28T00:18:03.569Z,10.56
2023-04-28T00:19:03.630Z,10.69
2023-04-28T00:20:04.295Z,10.62
2023-04-28T00:22:03.788Z,10.81
2023-04-28T00:23:04.246Z,10.81
2023-04-28T00:24:04.020Z,10.94
2023-04-28T00:25:03.535Z,10.88
2023-04-28T00:27:04.087Z,10.81
2023-04-28T00:28:03.616Z,10.75
2023-04-28T00:29:03.721Z,10.69
2023-04-28T00:32:04.082Z,10.44
2023-04-28T00:34:03.927Z,10.50
2023-04-28T00:35:03.536Z,10.38
2023-04-28T00:36:04.085Z,10.38
2023-04-28T00:37:04.170Z,10.38
2023-04-28T00:38:04.013Z,10.44
2023-04-28T00:39:04.084Z,10.50
2023-04-28T00:40:03.710Z,10.56
2023-04-28T00:41:04.352Z,10.69
2023-04-28T00:42:03.857Z,10.81
2023-04-28T00:44:04.243Z,10.94
2023-04-28T00:46:04.437Z,11.12
2023-04-28T00:47:04.414Z,11.06
2023-04-28T00:48:04.092Z,11.06
2023-04-28T00:49:03.611Z,11.06
2023-04-28T00:50:03.466Z,11.06
2023-04-28T00:51:04.096Z,11.06
2023-04-28T00:52:03.812Z,11.12
2023-04-28T00:53:04.420Z,11.06
2023-04-28T00:54:03.939Z,11.12
2023-04-28T00:55:03.704Z,11.12
2023-04-28T00:56:04.194Z,11.12
2023-04-28T00:57:03.844Z,11.06
2023-04-28T00:58:03.858Z,11.06
2023-04-28T00:59:04.407Z,11.06
2023-04-28T01:00:03.937Z,11.00
2023-04-28T01:01:03.839Z,10.88
2023-04-28T01:02:04.526Z,10.88
2023-04-28T01:03:04.316Z,10.88
2023-04-28T01:04:04.202Z,11.00
2023-04-28T01:06:04.097Z,11.12
2023-04-28T01:08:04.335Z,10.81
2023-04-28T01:09:04.342Z,10.69
2023-04-28T01:11:03.535Z,10.44
2023-04-28T01:12:04.186Z,10.38
2023-04-28T01:13:03.771Z,10.44
2023-04-28T01:15:04.249Z,10.25
2023-04-28T01:16:04.298Z,10.38
2023-04-28T01:17:03.891Z,10.31
2023-04-28T01:19:04.099Z,10.31
2023-04-28T01:20:03.760Z,10.38
2023-04-28T01:22:04.326Z,10.44
2023-04-28T01:24:04.496Z,10.38
2023-04-28T01:27:04.086Z,10.31
2023-04-28T01:28:04.008Z,10.31
2023-04-28T01:29:03.608Z,10.31
2023-04-28T01:30:04.165Z,10.31
2023-04-28T01:32:04.059Z,10.25
2023-04-28T01:33:03.752Z,10.25
2023-04-28T01:35:04.167Z,10.31
2023-04-28T01:36:04.484Z,10.44
2023-04-28T01:38:04.007Z,10.44
2023-04-28T01:40:03.457Z,10.44
2023-04-28T01:41:04.087Z,10.44
2023-04-28T01:43:04.362Z,10.50
2023-04-28T01:44:04.343Z,10.50
2023-04-28T01:45:04.407Z,10.44
2023-04-28T01:46:03.896Z,10.44
2023-04-28T01:48:04.209Z,10.44
2023-04-28T01:50:03.793Z,10.31
2023-04-28T01:51:03.780Z,10.25
2023-04-28T01:52:03.775Z,10.31
2023-04-28T01:53:03.771Z,10.44
2023-04-28T01:55:03.935Z,10.50
2023-04-28T01:56:03.847Z,10.56
2023-04-28T01:57:03.870Z,10.69
2023-04-28T01:58:03.760Z,10.75
2023-04-28T01:59:04.511Z,10.81
2023-04-28T02:00:04.411Z,10.81
2023-04-28T02:02:04.148Z,10.81
2023-04-28T02:03:04.195Z,10.81
2023-04-28T02:04:04.489Z,10.88
2023-04-28T02:05:04.091Z,10.88
2023-04-28T02:07:04.165Z,10.94
2023-04-28T02:08:03.765Z,11.06
2023-04-28T02:09:04.406Z,11.06
2023-04-28T02:10:04.404Z,11.12
2023-04-28T02:11:04.328Z,11.12
2023-04-28T02:12:03.846Z,11.00
2023-04-28T02:14:03.500Z,10.94
2023-04-28T02:15:04.183Z,10.88
2023-04-28T02:17:04.315Z,10.94
2023-04-28T02:18:04.450Z,11.00
2023-04-28T02:19:04.016Z,10.94
2023-04-28T02:20:04.085Z,10.94
2023-04-28T02:22:03.726Z,11.00
2023-04-28T02:23:04.339Z,11.00
2023-04-28T02:24:03.836Z,10.94
2023-04-28T02:25:03.853Z,10.94
2023-04-28T02:26:04.320Z,10.94
2023-04-28T02:27:03.868Z,10.94
2023-04-28T02:28:04.476Z,10.88
2023-04-28T02:29:04.003Z,10.94
2023-04-28T02:30:04.001Z,10.94
2023-04-28T02:31:03.545Z,10.88
2023-04-28T02:32:03.772Z,10.88
2023-04-28T02:33:04.483Z,10.88
2023-04-28T02:34:04.176Z,10.81
2023-04-28T02:35:03.600Z,10.81
2023-04-28T02:36:04.288Z,10.69
2023-04-28T02:37:03.774Z,10.75
2023-04-28T02:38:03.692Z,10.75
2023-04-28T02:39:03.772Z,10.94
2023-04-28T02:40:03.846Z,10.88
2023-04-28T02:41:04.332Z,10.94
2023-04-28T02:42:04.003Z,11.06
2023-04-28T02:44:03.601Z,10.81
2023-04-28T02:45:04.354Z,10.69
2023-04-28T02:46:03.847Z,10.62
2023-04-28T02:47:03.884Z,10.56
2023-04-28T02:48:04.587Z,10.56
2023-04-28T02:49:04.326Z,10.56
2023-04-28T02:50:03.773Z,10.62
2023-04-28T02:52:03.679Z,10.56
2023-04-28T02:53:04.244Z,10.69
2023-04-28T02:54:03.849Z,10.75
2023-04-28T02:57:03.540Z,10.94
2023-04-28T02:58:04.417Z,10.69
2023-04-28T02:59:04.086Z,10.81
2023-04-28T03:01:04.403Z,10.94
2023-04-28T03:02:04.019Z,11.06
2023-04-28T03:03:03.625Z,11.19
2023-04-28T03:04:04.514Z,11.06
2023-04-28T03:05:04.150Z,11.06
2023-04-28T03:06:03.911Z,11.00
2023-04-28T03:08:03.528Z,10.94
2023-04-28T03:09:04.094Z,11.06
2023-04-28T03:10:04.096Z,11.12
2023-04-28T03:11:03.615Z,11.06
2023-04-28T03:12:03.684Z,11.00
2023-04-28T03:13:04.508Z,10.81
2023-04-28T03:14:04.090Z,10.81
2023-04-28T03:16:03.745Z,11.00
2023-04-28T03:17:04.483Z,10.94
2023-04-28T03:18:04.265Z,11.00
2023-04-28T03:19:04.508Z,11.06
2023-04-28T03:21:03.927Z,10.94
2023-04-28T03:22:03.693Z,10.94
2023-04-28T03:23:04.254Z,11.06
2023-04-28T03:24:05.389Z,11.12
2023-04-28T03:25:03.598Z,11.06
2023-04-28T03:26:04.252Z,11.19
2023-04-28T03:27:03.778Z,11.31
2023-04-28T03:29:03.440Z,11.25
2023-04-28T03:30:04.018Z,11.25
2023-04-28T03:32:04.062Z,11.56
2023-04-28T03:33:03.785Z,11.81
2023-04-28T03:34:04.419Z,11.81
2023-04-28T03:36:04.244Z,11.94
2023-04-28T03:38:04.493Z,12.31
2023-04-28T03:40:03.523Z,12.19
2023-04-28T03:41:04.253Z,12.12
2023-04-28T03:43:04.988Z,12.38
2023-04-28T03:45:03.610Z,12.31
2023-04-28T03:46:03.614Z,12.44
2023-04-28T03:47:04.300Z,12.38
2023-04-28T03:49:03.930Z,12.06
2023-04-28T03:51:04.164Z,11.88
2023-04-28T03:53:04.160Z,11.69
2023-04-28T03:55:03.615Z,11.75
2023-04-28T03:56:04.249Z,11.75
2023-04-28T03:58:03.945Z,11.62
2023-04-28T04:00:03.707Z,11.75
2023-04-28T04:01:04.335Z,11.75
2023-04-28T04:03:03.761Z,11.69
2023-04-28T04:04:03.787Z,11.69
2023-04-28T04:05:03.797Z,11.81
2023-04-28T04:06:03.921Z,11.81
2023-04-28T04:07:04.417Z,11.88
2023-04-28T04:08:03.720Z,11.75
2023-04-28T04:09:04.096Z,11.75
2023-04-28T04:10:04.733Z,11.69
2023-04-28T04:11:03.607Z,11.62
2023-04-28T04:12:04.240Z,11.81
2023-04-28T04:13:04.336Z,11.88
2023-04-28T04:14:04.492Z,11.81
2023-04-28T04:15:03.923Z,11.75
2023-04-28T04:16:03.947Z,11.81
2023-04-28T04:17:03.788Z,11.81
2023-04-28T04:19:04.562Z,11.94
2023-04-28T04:20:05.069Z,11.81
2023-04-28T04:22:04.272Z,11.88
2023-04-28T04:23:03.936Z,11.75
2023-04-28T04:24:03.525Z,12.00
2023-04-28T04:27:04.414Z,12.06
2023-04-28T04:28:04.101Z,11.94
2023-04-28T04:29:03.528Z,12.00
2023-04-28T04:30:03.530Z,12.00
2023-04-28T04:31:04.310Z,12.00
2023-04-28T04:32:04.101Z,11.94
2023-04-28T04:33:03.680Z,12.00
2023-04-28T04:34:03.770Z,11.88
2023-04-28T04:35:04.423Z,11.94
2023-04-28T04:36:04.401Z,12.06
2023-04-28T04:37:04.616Z,12.19
2023-04-28T04:38:04.003Z,12.25
2023-04-28T04:39:04.026Z,12.31
2023-04-28T04:41:03.621Z,12.56
2023-04-28T04:42:10.421Z,12.69
2023-04-28T04:43:04.336Z,12.81
2023-04-28T04:44:03.685Z,13.00
2023-04-28T04:45:04.336Z,13.00
2023-04-28T04:47:04.014Z,13.00
2023-04-28T04:49:03.768Z,12.81
2023-04-28T04:51:04.502Z,12.81
2023-04-28T04:52:04.418Z,12.94
2023-04-28T04:54:03.463Z,13.12
2023-04-28T04:55:04.268Z,13.06
2023-04-28T04:56:03.770Z,13.19
2023-04-28T04:57:04.520Z,13.25
2023-04-28T04:58:04.530Z,13.38
2023-04-28T05:00:04.097Z,13.44
2023-04-28T05:01:04.167Z,13.44
2023-04-28T05:02:04.165Z,13.38
2023-04-28T05:03:03.672Z,13.38
2023-04-28T05:04:04.258Z,13.31
2023-04-28T05:05:12.732Z,13.44
2023-04-28T05:06:03.931Z,13.38
2023-04-28T05:07:04.399Z,13.44
2023-04-28T05:08:04.103Z,13.44
2023-04-28T05:11:04.257Z,13.62
2023-04-28T05:13:04.402Z,13.56
2023-04-28T05:14:03.638Z,13.50
2023-04-28T05:16:04.131Z,13.50
2023-04-28T05:17:03.790Z,13.50
2023-04-28T05:19:04.494Z,13.56
2023-04-28T05:21:04.101Z,13.56
2023-04-28T05:22:03.690Z,13.69
2023-04-28T05:23:04.186Z,13.75
2023-04-28T05:25:04.255Z,13.81
2023-04-28T05:26:04.771Z,13.81
2023-04-28T05:27:04.490Z,13.94
2023-04-28T05:29:03.925Z,14.00
2023-04-28T05:30:03.610Z,13.94
2023-04-28T05:31:03.628Z,13.94
2023-04-28T05:32:04.152Z,13.94
2023-04-28T05:33:04.061Z,14.00
2023-04-28T05:34:04.009Z,14.00
2023-04-28T05:35:04.163Z,14.00
2023-04-28T05:36:04.182Z,14.12
2023-04-28T05:37:04.187Z,14.19
2023-04-28T05:38:03.692Z,14.12
2023-04-28T05:40:04.248Z,14.00
2023-04-28T05:41:03.781Z,13.94
2023-04-28T05:42:04.260Z,14.06
2023-04-28T05:43:04.017Z,14.19
2023-04-28T05:45:04.352Z,14.44
2023-04-28T05:47:03.764Z,14.62
2023-04-28T05:48:03.638Z,14.69
2023-04-28T05:49:03.895Z,14.75
2023-04-28T05:50:04.472Z,14.75
2023-04-28T05:52:04.247Z,14.62
2023-04-28T05:53:03.769Z,14.62
2023-04-28T05:55:03.696Z,14.62
2023-04-28T05:56:04.166Z,14.69
2023-04-28T05:57:04.093Z,14.69
2023-04-28T05:58:03.537Z,14.69
2023-04-28T05:59:04.264Z,14.69
2023-04-28T06:01:04.003Z,14.75
2023-04-28T06:03:04.486Z,14.94
2023-04-28T06:05:03.837Z,15.00
2023-04-28T06:06:05.985Z,15.06
2023-04-28T06:07:03.785Z,15.06
2023-04-28T06:08:04.508Z,14.94
2023-04-28T06:09:04.019Z,15.00
2023-04-28T06:11:03.708Z,15.00
2023-04-28T06:12:04.165Z,15.06
2023-04-28T06:14:04.490Z,15.19
2023-04-28T06:16:04.482Z,15.25
2023-04-28T06:17:03.817Z,15.38
2023-04-28T06:18:04.137Z,15.38
2023-04-28T06:19:03.713Z,15.38
2023-04-28T06:20:04.418Z,15.25
2023-04-28T06:21:04.501Z,15.38
2023-04-28T06:23:04.810Z,15.62
2023-04-28T06:25:04.174Z,15.56
2023-04-28T06:27:03.778Z,15.38
2023-04-28T06:29:04.404Z,15.31
2023-04-28T06:30:04.018Z,15.31
2023-04-28T06:31:04.030Z,15.44
2023-04-28T06:32:04.016Z,15.50
2023-04-28T06:33:03.878Z,15.69
2023-04-28T06:34:03.709Z,15.75
2023-04-28T06:35:03.612Z,15.75
2023-04-28T06:36:03.697Z,15.88
2023-04-28T06:37:03.605Z,15.81
2023-04-28T06:39:03.869Z,16.06
2023-04-28T06:40:04.433Z,16.06
2023-04-28T06:41:04.021Z,16.00
2023-04-28T06:42:04.177Z,15.94
2023-04-28T06:43:04.123Z,15.94
2023-04-28T06:45:04.259Z,15.75
2023-04-28T06:46:03.850Z,15.75
2023-04-28T06:48:04.385Z,16.00
2023-04-28T06:49:03.615Z,16.12
2023-04-28T06:50:04.166Z,16.38
2023-04-28T06:52:04.339Z,16.38
2023-04-28T06:53:03.769Z,16.50
2023-04-28T06:55:04.405Z,16.56
2023-04-28T06:57:03.779Z,16.62
2023-04-28T06:58:04.529Z,16.62
2023-04-28T07:00:03.456Z,16.62
2023-04-28T07:01:04.051Z,16.69
2023-04-28T07:02:04.283Z,16.81
2023-04-28T07:03:04.162Z,16.81
2023-04-28T07:04:04.192Z,16.88
2023-04-28T07:05:04.027Z,16.88
2023-04-28T07:06:03.860Z,16.88
2023-04-28T07:07:04.255Z,16.88
2023-04-28T07:08:03.899Z,16.94
2023-04-28T07:09:04.366Z,16.94
2023-04-28T07:10:04.022Z,16.94
2023-04-28T07:11:03.638Z,16.94
2023-04-28T07:12:04.520Z,16.94
2023-04-28T07:14:04.190Z,17.00
2023-04-28T07:15:03.778Z,17.19
2023-04-28T07:16:04.490Z,17.31
2023-04-28T07:17:04.021Z,17.44
2023-04-28T07:18:03.737Z,17.38
2023-04-28T07:19:03.855Z,17.38
2023-04-28T07:20:03.937Z,17.38
2023-04-28T07:21:05.354Z,17.38
2023-04-28T07:22:04.426Z,17.38
2023-04-28T07:24:03.625Z,17.44
2023-04-28T07:26:04.023Z,17.69
2023-04-28T07:27:04.032Z,17.62
2023-04-28T07:28:03.852Z,17.69
2023-04-28T07:29:04.502Z,17.75
2023-04-28T07:30:11.848Z,17.75
2023-04-28T07:32:06.763Z,17.62
2023-04-28T07:33:04.453Z,17.69
2023-04-28T07:34:03.533Z,17.69
2023-04-28T07:35:03.616Z,17.69
2023-04-28T07:36:03.698Z,17.88
2023-04-28T07:37:04.105Z,18.00
2023-04-28T07:38:03.873Z,18.06
2023-04-28T07:39:04.408Z,18.00
2023-04-28T07:40:04.419Z,18.06
2023-04-28T07:41:04.664Z,17.94
2023-04-28T07:43:03.955Z,17.69
2023-04-28T07:44:04.405Z,17.56
2023-04-28T07:45:04.193Z,17.25
2023-04-28T07:47:04.337Z,16.62
2023-04-28T07:48:04.076Z,16.44
2023-04-28T07:49:03.620Z,16.62
2023-04-28T07:50:03.518Z,16.75
2023-04-28T07:51:03.777Z,16.88
2023-04-28T07:53:04.185Z,17.12
2023-04-28T07:54:04.080Z,17.25
2023-04-28T07:55:03.702Z,17.50
2023-04-28T07:56:03.857Z,17.94
2023-04-28T07:57:04.337Z,18.06
2023-04-28T07:58:04.018Z,17.88
2023-04-28T08:01:04.332Z,17.94
2023-04-28T08:03:04.090Z,17.94
2023-04-28T08:04:04.163Z,17.94
2023-04-28T08:05:04.616Z,17.94
2023-04-28T08:06:03.743Z,17.94
2023-04-28T08:07:03.999Z,17.94
2023-04-28T08:09:03.603Z,17.69
2023-04-28T08:10:04.186Z,17.69
2023-04-28T08:12:04.335Z,17.69
2023-04-28T08:13:04.019Z,17.75
2023-04-28T08:14:03.912Z,17.69
2023-04-28T08:15:04.338Z,17.75
2023-04-28T08:16:04.238Z,17.94
2023-04-28T08:17:03.681Z,17.88
2023-04-28T08:18:04.287Z,17.88
2023-04-28T08:19:03.943Z,17.75
2023-04-28T08:20:03.773Z,17.88
2023-04-28T08:22:04.336Z,17.81
2023-04-28T08:23:03.794Z,17.75
2023-04-28T08:25:04.341Z,17.56
2023-04-28T08:26:03.850Z,17.38
2023-04-28T08:27:03.925Z,17.38
2023-04-28T08:28:03.690Z,17.31
2023-04-28T08:29:04.192Z,17.06
2023-04-28T08:30:03.687Z,16.75
2023-04-28T08:32:04.428Z,16.75
2023-04-28T08:33:04.028Z,16.94
2023-04-28T08:34:04.419Z,16.94
2023-04-28T08:35:04.111Z,16.69
2023-04-28T08:36:03.786Z,16.50
2023-04-28T08:38:04.249Z,16.62
2023-04-28T08:39:03.855Z,16.88
2023-04-28T08:40:04.406Z,16.94
2023-04-28T08:41:04.029Z,16.94
2023-04-28T08:42:04.324Z,16.94
2023-04-28T08:44:04.496Z,17.12
2023-04-28T08:45:04.405Z,17.19
2023-04-28T08:46:04.489Z,17.12
2023-04-28T08:47:04.115Z,16.88
2023-04-28T08:48:03.841Z,17.06
2023-04-28T08:49:04.408Z,17.12
2023-04-28T08:50:04.441Z,17.06
2023-04-28T08:52:03.705Z,17.12
2023-04-28T08:53:04.418Z,17.56
2023-04-28T08:54:22.761Z,17.44
2023-04-28T08:56:04.181Z,17.50
2023-04-28T08:57:03.693Z,17.38
2023-04-28T08:58:03.771Z,17.38
2023-04-28T08:59:04.342Z,17.31
2023-04-28T09:00:03.927Z,17.31
2023-04-28T09:01:04.004Z,17.25
2023-04-28T09:02:03.988Z,17.19
2023-04-28T09:03:04.204Z,17.19
2023-04-28T09:04:04.171Z,17.44
2023-04-28T09:06:03.968Z,17.56
2023-04-28T09:08:04.479Z,17.62
2023-04-28T09:09:04.089Z,17.56
2023-04-28T09:10:03.700Z,17.38
2023-04-28T09:11:04.252Z,17.12
2023-04-28T09:12:03.794Z,17.12
2023-04-28T09:13:04.398Z,17.06
2023-04-28T09:14:04.256Z,17.12
2023-04-28T09:16:04.290Z,17.06
2023-04-28T09:17:04.399Z,17.12
2023-04-28T09:18:04.277Z,17.06
2023-04-28T09:19:04.175Z,16.88
2023-04-28T09:21:03.677Z,16.94
2023-04-28T09:22:14.253Z,16.94
2023-04-28T09:24:03.685Z,16.75
2023-04-28T09:26:04.258Z,16.50
2023-04-28T09:27:03.951Z,16.38
2023-04-28T09:28:04.245Z,16.50
2023-04-28T09:29:04.158Z,16.50
2023-04-28T09:30:04.242Z,16.62
2023-04-28T09:31:04.505Z,16.69
2023-04-28T09:33:03.878Z,16.44
2023-04-28T09:34:03.928Z,16.56
2023-04-28T09:35:03.874Z,16.50
2023-04-28T09:36:03.520Z,16.69
2023-04-28T09:37:04.109Z,16.50
2023-04-28T09:38:03.938Z,16.50
2023-04-28T09:39:03.989Z,16.62
2023-04-28T09:41:04.136Z,16.56
2023-04-28T09:42:03.660Z,16.44
2023-04-28T09:43:11.861Z,16.56
2023-04-28T09:44:04.409Z,16.44
2023-04-28T09:45:04.422Z,16.56
2023-04-28T09:46:04.082Z,16.69
2023-04-28T09:48:04.444Z,16.81
2023-04-28T09:49:04.015Z,16.75
2023-04-28T09:50:03.925Z,16.75
2023-04-28T09:51:03.535Z,16.75
2023-04-28T09:52:03.685Z,16.75
2023-04-28T09:54:04.337Z,16.69
2023-04-28T09:56:03.755Z,16.62
2023-04-28T09:57:04.103Z,16.62
2023-04-28T09:58:03.688Z,16.69
2023-04-28T10:00:04.255Z,16.75
2023-04-28T10:01:03.829Z,17.06
2023-04-28T10:02:11.116Z,16.88
2023-04-28T10:04:04.194Z,16.88
2023-04-28T10:06:04.019Z,16.56
2023-04-28T10:08:04.088Z,16.50
2023-04-28T10:10:04.304Z,16.44
2023-04-28T10:11:04.006Z,16.38
2023-04-28T10:12:03.599Z,16.38
2023-04-28T10:13:04.412Z,16.31
2023-04-28T10:14:03.865Z,16.56
2023-04-28T10:16:03.689Z,16.50
2023-04-28T10:17:04.248Z,16.38
2023-04-28T10:19:04.176Z,16.56
2023-04-28T10:20:04.077Z,16.56
2023-04-28T10:21:04.410Z,16.56
2023-04-28T10:23:03.698Z,16.38
2023-04-28T10:25:04.333Z,15.94
2023-04-28T10:26:03.937Z,15.81
2023-04-28T10:27:03.614Z,16.12
2023-04-28T10:29:04.099Z,16.31
2023-04-28T10:30:08.285Z,16.38
2023-04-28T10:31:04.500Z,16.38
2023-04-28T10:32:04.511Z,16.38
2023-04-28T10:33:03.976Z,16.06
2023-04-28T10:36:04.417Z,16.38
2023-04-28T10:37:04.354Z,16.38
2023-04-28T10:38:04.403Z,16.56
2023-04-28T10:39:04.252Z,16.69
2023-04-28T10:40:04.608Z,16.62
2023-04-28T10:41:03.627Z,16.62
2023-04-28T10:42:05.163Z,16.75
2023-04-28T10:44:04.179Z,16.88
2023-04-28T10:45:03.769Z,17.19
2023-04-28T10:46:04.391Z,17.31
2023-04-28T10:47:04.115Z,17.38
2023-04-28T10:48:04.493Z,17.50
2023-04-28T10:50:04.262Z,17.50
2023-04-28T10:51:04.256Z,17.31
2023-04-28T10:54:04.406Z,17.12
2023-04-28T10:55:12.680Z,17.06
2023-04-28T10:57:03.615Z,17.12
2023-04-28T10:59:03.845Z,17.12
2023-04-28T11:00:03.689Z,17.19
2023-04-28T11:02:04.424Z,17.06
2023-04-28T11:03:04.172Z,17.06
2023-04-28T11:04:04.305Z,17.06
2023-04-28T11:05:03.770Z,17.06
2023-04-28T11:06:04.351Z,16.94
2023-04-28T11:07:04.093Z,16.81
2023-04-28T11:09:03.627Z,16.94
2023-04-28T11:10:03.608Z,17.19
2023-04-28T11:12:03.697Z,17.56
2023-04-28T11:14:04.365Z,17.25
2023-04-28T11:15:03.929Z,17.38
2023-04-28T11:16:03.958Z,17.31
2023-04-28T11:17:04.489Z,17.31
2023-04-28T11:18:04.022Z,17.31
2023-04-28T11:19:03.930Z,17.62
2023-04-28T11:20:04.410Z,17.44
2023-04-28T11:22:03.538Z,17.56
2023-04-28T11:23:04.247Z,17.50
2023-04-28T11:24:03.924Z,17.44
2023-04-28T11:25:03.871Z,17.44
2023-04-28T11:26:03.717Z,17.19
2023-04-28T11:27:04.356Z,17.19
2023-04-28T11:28:03.857Z,17.06
2023-04-28T11:29:04.324Z,17.06
2023-04-28T11:30:04.414Z,17.06
2023-04-28T11:32:04.611Z,17.12
2023-04-28T11:35:04.176Z,17.44
2023-04-28T11:37:03.528Z,17.38
2023-04-28T11:38:03.617Z,17.25
2023-04-28T11:39:03.759Z,17.31
2023-04-28T11:40:03.769Z,17.19
2023-04-28T11:41:04.172Z,17.31
2023-04-28T11:43:03.850Z,17.50
2023-04-28T11:44:03.786Z,17.38
2023-04-28T11:46:03.950Z,17.06
2023-04-28T11:47:04.074Z,17.00
2023-04-28T11:49:04.101Z,16.94
2023-04-28T11:50:03.758Z,16.88
2023-04-28T11:51:03.524Z,16.69
2023-04-28T11:52:04.033Z,16.62
2023-04-28T11:53:04.161Z,16.62
2023-04-28T11:54:04.185Z,16.62
2023-04-28T11:56:03.631Z,16.56
2023-04-28T11:58:04.261Z,16.56
2023-04-28T11:59:04.117Z,16.62
2023-04-28T12:00:03.949Z,16.62
2023-04-28T12:01:03.929Z,16.62
2023-04-28T12:03:04.399Z,16.75
2023-04-28T12:04:04.396Z,16.88
2023-04-28T12:05:04.212Z,16.81
2023-04-28T12:06:04.320Z,16.75
2023-04-28T12:07:03.850Z,16.75
2023-04-28T12:08:04.009Z,16.56
2023-04-28T12:09:03.855Z,16.44
2023-04-28T12:10:03.947Z,16.25
2023-04-28T12:12:03.677Z,16.44
2023-04-28T12:13:04.498Z,16.50
2023-04-28T12:14:04.087Z,16.75
2023-04-28T12:15:04.175Z,17.00
2023-04-28T12:17:04.556Z,17.00
2023-04-28T12:18:04.019Z,17.00
2023-04-28T12:19:03.773Z,17.00
2023-04-28T12:21:03.788Z,16.88
2023-04-28T12:23:04.191Z,16.69
2023-04-28T12:24:03.687Z,16.69
2023-04-28T12:25:03.785Z,16.69
2023-04-28T12:26:04.253Z,16.88
2023-04-28T12:27:03.699Z,16.94
2023-04-28T12:28:04.321Z,17.00
2023-04-28T12:29:04.083Z,17.00
2023-04-28T12:30:03.701Z,16.94
2023-04-28T12:32:04.086Z,17.44
2023-04-28T12:33:03.713Z,17.31
2023-04-28T12:35:03.851Z,17.25
2023-04-28T12:36:03.684Z,17.25
2023-04-28T12:37:03.776Z,17.19
2023-04-28T12:38:03.786Z,17.12
2023-04-28T12:39:04.337Z,17.19
2023-04-28T12:40:03.925Z,17.12
2023-04-28T12:42:03.561Z,17.31
2023-04-28T12:43:04.093Z,17.50
2023-04-28T12:44:04.107Z,17.75
2023-04-28T12:45:04.171Z,18.00
2023-04-28T12:46:03.716Z,18.38
2023-04-28T12:47:04.260Z,18.44
2023-04-28T12:49:03.778Z,18.75
2023-04-28T12:50:04.339Z,18.81
2023-04-28T12:51:03.948Z,18.69
2023-04-28T12:52:03.617Z,18.75
2023-04-28T12:53:03.616Z,18.69
2023-04-28T12:54:03.721Z,18.69
2023-04-28T12:55:04.188Z,18.75
2023-04-28T12:56:03.689Z,18.88
2023-04-28T12:57:04.097Z,18.94
2023-04-28T12:59:04.256Z,18.88
2023-04-28T13:01:04.026Z,18.94
2023-04-28T13:03:04.438Z,19.19
2023-04-28T13:04:04.450Z,19.19
2023-04-28T13:05:04.411Z,19.06
2023-04-28T13:07:03.527Z,19.00
2023-04-28T13:08:04.089Z,19.19
2023-04-28T13:09:04.260Z,19.00
2023-04-28T13:11:07.289Z,19.31
2023-04-28T13:13:04.265Z,19.44
2023-04-28T13:15:03.696Z,19.69
2023-04-28T13:16:04.634Z,19.69
2023-04-28T13:17:04.416Z,19.75
2023-04-28T13:18:04.020Z,19.62
2023-04-28T13:20:03.688Z,19.38
2023-04-28T13:21:03.695Z,19.31
2023-04-28T13:23:04.430Z,19.44
2023-04-28T13:24:04.250Z,19.50
2023-04-28T13:25:04.257Z,19.81
2023-04-28T13:26:04.349Z,19.88
2023-04-28T13:27:03.785Z,19.94
2023-04-28T13:28:03.692Z,20.06
2023-04-28T13:29:03.788Z,19.88
2023-04-28T13:30:04.368Z,19.88
2023-04-28T13:31:03.863Z,20.12
2023-04-28T13:33:04.275Z,20.50
2023-04-28T13:34:04.041Z,20.50
2023-04-28T13:35:04.093Z,20.44
2023-04-28T13:36:03.618Z,20.56
2023-04-28T13:37:04.177Z,20.56
2023-04-28T13:38:04.091Z,20.56
2023-04-28T13:39:05.052Z,20.62
2023-04-28T13:40:03.589Z,20.69
2023-04-28T13:41:03.548Z,20.75
2023-04-28T13:42:03.944Z,20.81
2023-04-28T13:43:03.627Z,20.88
2023-04-28T13:45:04.268Z,21.00
2023-04-28T13:46:04.367Z,21.00
2023-04-28T13:47:04.094Z,21.12
2023-04-28T13:48:03.586Z,21.12
2023-04-28T13:49:04.087Z,21.06
2023-04-28T13:50:03.807Z,21.06
2023-04-28T13:52:04.047Z,20.81
2023-04-28T13:53:03.945Z,20.75
2023-04-28T13:54:04.129Z,20.75
2023-04-28T13:56:03.816Z,20.50
2023-04-28T13:57:04.427Z,20.44
2023-04-28T13:58:03.943Z,20.38
2023-04-28T13:59:03.454Z,20.25
2023-04-28T14:00:03.733Z,20.00
2023-04-28T14:01:03.554Z,19.88
2023-04-28T14:03:04.159Z,19.75
2023-04-28T14:04:04.411Z,19.81
2023-04-28T14:06:04.413Z,19.06
2023-04-28T14:07:03.938Z,18.94
2023-04-28T14:08:03.526Z,19.06
2023-04-28T14:09:04.178Z,19.12
2023-04-28T14:11:03.768Z,19.38
2023-04-28T14:12:04.350Z,19.50
2023-04-28T14:13:03.853Z,19.50
2023-04-28T14:14:03.928Z,19.38
2023-04-28T14:15:03.554Z,19.25
2023-04-28T14:16:03.448Z,19.38
2023-04-28T14:17:03.551Z,19.69
2023-04-28T14:18:04.302Z,19.75
2023-04-28T14:20:04.103Z,20.00
2023-04-28T14:21:03.609Z,19.81
2023-04-28T14:22:03.617Z,19.75
2023-04-28T14:26:04.093Z,20.12
2023-04-28T14:27:03.685Z,20.06
2023-04-28T14:28:04.092Z,19.94
2023-04-28T14:30:04.270Z,19.81
2023-04-28T14:32:04.590Z,20.00
2023-04-28T14:33:04.125Z,19.88
2023-04-28T14:35:03.766Z,19.94
2023-04-28T14:36:03.765Z,19.88
2023-04-28T14:37:03.901Z,19.88
2023-04-28T14:38:03.867Z,20.25
2023-04-28T14:40:04.308Z,20.19
2023-04-28T14:42:03.878Z,20.12
2023-04-28T14:43:04.510Z,20.25
2023-04-28T14:44:03.934Z,20.25
2023-04-28T14:45:03.608Z,20.12
2023-04-28T14:46:04.181Z,20.00
2023-04-28T14:47:04.248Z,20.12
2023-04-28T14:48:04.492Z,20.31
2023-04-28T14:49:04.170Z,20.25
2023-04-28T14:51:04.489Z,20.00
2023-04-28T14:52:03.934Z,19.88
2023-04-28T14:53:04.083Z,19.81
2023-04-28T14:54:03.769Z,19.62
2023-04-28T14:56:17.066Z,19.88
2023-04-28T14:57:04.353Z,20.00
2023-04-28T14:58:04.259Z,19.94
2023-04-28T14:59:04.342Z,20.12
2023-04-28T15:00:04.029Z,20.25
2023-04-28T15:02:04.761Z,20.31
2023-04-28T15:03:04.153Z,20.31
2023-04-28T15:05:04.335Z,20.31
2023-04-28T15:06:03.451Z,20.38
2023-04-28T15:07:04.092Z,20.31
2023-04-28T15:08:03.776Z,20.19
2023-04-28T15:09:04.343Z,20.19
2023-04-28T15:10:04.405Z,20.25
2023-04-28T15:11:04.013Z,20.25
2023-04-28T15:14:03.626Z,20.06
2023-04-28T15:15:03.609Z,20.06
2023-04-28T15:16:04.197Z,20.31
2023-04-28T15:17:04.258Z,20.25
2023-04-28T15:19:03.781Z,20.19
2023-04-28T15:21:04.018Z,20.19
2023-04-28T15:23:03.777Z,20.12
2023-04-28T15:25:04.513Z,20.31
2023-04-28T15:26:03.526Z,20.31
2023-04-28T15:27:04.195Z,20.31
2023-04-28T15:28:04.180Z,20.31
2023-04-28T15:29:04.182Z,20.25
2023-04-28T15:31:03.738Z,20.12
2023-04-28T15:32:04.340Z,20.00
2023-04-28T15:34:03.540Z,19.94
2023-04-28T15:35:04.261Z,19.88
2023-04-28T15:36:04.010Z,19.88
2023-04-28T15:37:03.695Z,20.06
2023-04-28T15:38:03.774Z,20.00
2023-04-28T15:39:04.446Z,19.94
2023-04-28T15:40:04.015Z,20.12
2023-04-28T15:41:04.502Z,20.12
2023-04-28T15:43:04.006Z,20.38
2023-04-28T15:45:04.256Z,20.38
2023-04-28T15:46:03.769Z,20.38
2023-04-28T15:48:03.585Z,20.31
2023-04-28T15:49:04.247Z,20.31
2023-04-28T15:52:03.777Z,20.06
2023-04-28T15:54:04.343Z,20.06
2023-04-28T15:55:03.852Z,20.00
2023-04-28T15:57:03.529Z,19.94
2023-04-28T15:58:04.441Z,20.00
2023-04-28T15:59:04.509Z,19.88
2023-04-28T16:01:04.143Z,19.81
2023-04-28T16:02:03.809Z,19.75
2023-04-28T16:03:04.519Z,19.81
2023-04-28T16:04:04.328Z,19.88
2023-04-28T16:05:04.508Z,20.06
2023-04-28T16:06:04.172Z,20.06
2023-04-28T16:08:03.775Z,20.25
2023-04-28T16:09:04.332Z,20.25
2023-04-28T16:10:05.449Z,20.25
2023-04-28T16:11:03.921Z,20.19
2023-04-28T16:12:04.106Z,20.19
2023-04-28T16:13:04.026Z,20.12
2023-04-28T16:14:03.929Z,20.12
2023-04-28T16:15:04.051Z,20.25
2023-04-28T16:17:03.715Z,20.12
2023-04-28T16:18:04.421Z,20.00
2023-04-28T16:19:04.017Z,19.94
2023-04-28T16:21:03.637Z,19.81
2023-04-28T16:22:04.339Z,20.06
2023-04-28T16:25:03.663Z,20.12
2023-04-28T16:27:04.334Z,20.06